Time;durP1;ratioP1;P1;durP2;ratioP2;P2;SDS_P1;SDS_P2;PMS_P1;PMS_P2;Temp;Humidity;BMP_temperature;BMP_pressure;BME280_temperature;BME280_humidity;BME280_pressure;Samples;Min_cycle;Max_cycle;Signal;HPM_P1;HPM_P2
2021/09/03 00:01:18;;;;;;;13.00;9.70;;;15.10;99.90;;;;;;4992439;28;20455;-62
2021/09/03 00:03:45;;;;;;;13.10;10.00;;;15.20;99.90;;;;;;5011103;28;20449;-62
2021/09/03 00:06:12;;;;;;;11.40;9.27;;;15.20;99.90;;;;;;5011476;28;20979;-61
2021/09/03 00:08:40;;;;;;;12.87;9.80;;;15.30;99.90;;;;;;5011954;28;20496;-61
2021/09/03 00:11:07;;;;;;;12.70;9.97;;;15.30;99.90;;;;;;5011627;28;20457;-61
2021/09/03 00:13:35;;;;;;;10.90;9.53;;;15.30;99.90;;;;;;5011957;28;20450;-62
2021/09/03 00:16:01;;;;;;;11.90;9.97;;;15.30;99.90;;;;;;5012102;28;20454;-61
2021/09/03 00:18:29;;;;;;;12.27;9.87;;;15.30;99.90;;;;;;5011919;28;20524;-61
2021/09/03 00:20:56;;;;;;;11.33;8.90;;;15.30;99.90;;;;;;5010767;28;20445;-61
2021/09/03 00:23:23;;;;;;;12.53;9.73;;;15.30;99.90;;;;;;5015473;28;20512;-61
2021/09/03 00:25:52;;;;;;;12.60;10.03;;;15.10;99.90;;;;;;5015959;28;20519;-62
2021/09/03 00:28:19;;;;;;;12.40;8.70;;;14.80;99.90;;;;;;5015392;28;20931;-61
2021/09/03 00:30:46;;;;;;;11.10;8.70;;;15.00;99.90;;;;;;5015779;28;20449;-62
2021/09/03 00:33:13;;;;;;;12.03;9.20;;;15.00;99.90;;;;;;5015872;28;20456;-61
2021/09/03 00:35:40;;;;;;;12.67;8.83;;;15.00;99.90;;;;;;5015386;28;20454;-62
2021/09/03 00:38:07;;;;;;;9.97;8.30;;;15.00;99.90;;;;;;5015684;28;20546;-61
2021/09/03 00:40:34;;;;;;;10.70;8.50;;;15.00;99.90;;;;;;5015182;28;20485;-62
2021/09/03 00:43:03;;;;;;;10.10;8.10;;;15.00;99.90;;;;;;5015307;28;21018;-61
2021/09/03 00:45:30;;;;;;;10.53;8.10;;;15.00;99.90;;;;;;5015525;28;20832;-61
2021/09/03 00:47:57;;;;;;;11.07;9.13;;;15.00;99.90;;;;;;5015214;28;20969;-61
2021/09/03 00:50:25;;;;;;;12.57;8.67;;;14.90;99.90;;;;;;5014952;28;20449;-61
2021/09/03 00:52:52;;;;;;;10.70;7.83;;;14.70;99.90;;;;;;5015623;28;20445;-61
2021/09/03 00:55:19;;;;;;;10.57;8.20;;;14.60;99.90;;;;;;5015126;28;20520;-62
2021/09/03 00:57:46;;;;;;;11.20;8.00;;;14.60;99.90;;;;;;5015039;28;20453;-61
2021/09/03 01:00:18;;;;;;;11.40;8.53;;;14.70;99.90;;;;;;5014739;28;20489;-62
2021/09/03 01:02:45;;;;;;;9.87;7.77;;;14.60;99.90;;;;;;5014524;28;20500;-61
2021/09/03 01:05:12;;;;;;;11.23;9.27;;;14.70;99.90;;;;;;5014980;28;21021;-61
2021/09/03 01:07:39;;;;;;;8.60;7.30;;;14.60;99.90;;;;;;5014842;28;20977;-61
2021/09/03 01:10:11;;;;;;;12.03;7.43;;;14.60;99.90;;;;;;5014773;28;20480;-61
2021/09/03 01:12:38;;;;;;;11.60;7.40;;;14.60;99.90;;;;;;5014524;28;20450;-61
2021/09/03 01:15:06;;;;;;;9.43;6.87;;;14.70;99.90;;;;;;5015068;28;20504;-61
2021/09/03 01:17:37;;;;;;;7.97;6.53;;;14.70;99.90;;;;;;5014763;28;20503;-61
2021/09/03 01:20:06;;;;;;;10.67;6.40;;;14.70;99.90;;;;;;5014341;28;20488;-61
2021/09/03 01:22:34;;;;;;;8.50;6.70;;;14.70;99.90;;;;;;5014573;28;20577;-61
2021/09/03 01:25:01;;;;;;;9.20;6.83;;;14.60;99.90;;;;;;5014956;28;20938;-61
2021/09/03 01:27:29;;;;;;;8.73;6.90;;;14.50;99.90;;;;;;5014412;28;20464;-61
2021/09/03 01:29:56;;;;;;;9.47;6.80;;;14.50;99.90;;;;;;5014691;28;20523;-61
2021/09/03 01:32:23;;;;;;;8.60;7.20;;;14.60;99.90;;;;;;5014160;28;20458;-61
2021/09/03 01:34:50;;;;;;;7.80;6.40;;;14.60;99.90;;;;;;5013629;28;20453;-62
2021/09/03 01:37:17;;;;;;;7.40;6.33;;;14.60;99.90;;;;;;5014283;28;20445;-61
2021/09/03 01:39:45;;;;;;;8.57;6.90;;;14.70;99.90;;;;;;5014478;28;20489;-61
2021/09/03 01:42:12;;;;;;;6.77;5.70;;;14.60;99.90;;;;;;5014040;28;20951;-62
2021/09/03 01:44:39;;;;;;;7.00;5.60;;;14.60;99.90;;;;;;5014571;28;20503;-61
2021/09/03 01:47:06;;;;;;;8.87;6.30;;;14.60;99.90;;;;;;5014377;28;20445;-61
2021/09/03 01:49:33;;;;;;;6.53;5.77;;;14.60;99.90;;;;;;5013889;28;20510;-61
2021/09/03 01:52:00;;;;;;;8.93;5.83;;;14.60;99.90;;;;;;5013644;28;20445;-61
2021/09/03 01:54:27;;;;;;;6.83;5.87;;;14.50;99.90;;;;;;5014284;28;20943;-61
2021/09/03 01:56:55;;;;;;;7.43;5.60;;;14.50;99.90;;;;;;5014127;28;20453;-62
2021/09/03 01:59:22;;;;;;;7.07;5.50;;;14.40;99.90;;;;;;5013559;28;20841;-61
2021/09/03 02:01:49;;;;;;;7.47;5.93;;;14.30;99.90;;;;;;5014147;28;20458;-62
2021/09/03 02:04:16;;;;;;;5.70;5.10;;;14.30;99.90;;;;;;5013779;28;20504;-61
2021/09/03 02:06:43;;;;;;;6.87;5.70;;;14.30;99.90;;;;;;5014134;28;20500;-61
2021/09/03 02:09:10;;;;;;;6.77;5.07;;;14.30;99.90;;;;;;5013567;28;20470;-61
2021/09/03 02:11:37;;;;;;;7.03;6.00;;;14.20;99.90;;;;;;5013785;28;20512;-61
2021/09/03 02:14:06;;;;;;;7.27;5.50;;;14.30;99.90;;;;;;5013923;28;20445;-61
2021/09/03 02:16:33;;;;;;;7.87;6.20;;;14.30;99.90;;;;;;5013932;28;20449;-61
2021/09/03 02:19:00;;;;;;;7.00;5.70;;;14.20;99.90;;;;;;5013263;28;20883;-61
2021/09/03 02:21:27;;;;;;;7.13;5.63;;;14.20;99.90;;;;;;5013576;28;20512;-61
2021/09/03 02:23:54;;;;;;;5.90;5.13;;;14.20;99.90;;;;;;5013712;28;20511;-61
2021/09/03 02:26:21;;;;;;;6.70;5.67;;;14.20;99.90;;;;;;5013584;28;20458;-61
2021/09/03 02:28:48;;;;;;;7.10;5.70;;;14.20;99.90;;;;;;5013430;28;20485;-61
2021/09/03 02:31:16;;;;;;;8.13;5.70;;;14.20;99.90;;;;;;5012547;28;21020;-61
2021/09/03 02:33:44;;;;;;;8.13;5.40;;;14.20;99.90;;;;;;5013881;28;20453;-61
2021/09/03 02:36:11;;;;;;;7.97;5.77;;;14.20;99.90;;;;;;5013323;28;20453;-62
2021/09/03 02:38:38;;;;;;;9.67;7.00;;;14.20;99.90;;;;;;5013465;28;20462;-61
2021/09/03 02:41:05;;;;;;;8.77;6.00;;;14.20;99.90;;;;;;5013119;28;20485;-62
2021/09/03 02:43:32;;;;;;;8.37;6.00;;;14.20;99.90;;;;;;5013270;28;20450;-61
2021/09/03 02:45:59;;;;;;;7.50;5.60;;;14.20;99.90;;;;;;5012558;28;20453;-61
2021/09/03 02:48:27;;;;;;;7.37;5.83;;;14.20;99.90;;;;;;5013020;28;20567;-61
2021/09/03 02:50:54;;;;;;;7.37;5.90;;;14.10;99.90;;;;;;5013014;28;20500;-61
2021/09/03 02:53:21;;;;;;;8.70;6.63;;;14.10;99.90;;;;;;5011810;28;20954;-61
2021/09/03 02:55:53;;;;;;;7.20;6.17;;;14.20;99.90;;;;;;5012101;28;20461;-60
2021/09/03 02:58:20;;;;;;;7.20;5.80;;;14.10;99.90;;;;;;5010570;28;20475;-61
2021/09/03 03:00:47;;;;;;;6.57;5.50;;;14.10;99.90;;;;;;5012689;28;20531;-61
2021/09/03 03:03:14;;;;;;;6.50;5.63;;;14.10;99.90;;;;;;5012795;28;20465;-61
2021/09/03 03:05:42;;;;;;;9.37;6.03;;;14.00;99.90;;;;;;5012053;28;20967;-62
2021/09/03 03:08:09;;;;;;;8.43;6.50;;;13.90;99.90;;;;;;5012287;28;20504;-62
2021/09/03 03:10:36;;;;;;;7.97;5.93;;;13.90;99.90;;;;;;5012674;28;20450;-61
2021/09/03 03:13:19;;;;;;;9.00;6.60;;;13.80;99.90;;;;;;5012679;28;20507;-62
2021/09/03 03:15:46;;;;;;;9.30;7.03;;;13.90;99.90;;;;;;5007844;28;20454;-61
2021/09/03 03:18:13;;;;;;;8.23;6.10;;;13.80;99.90;;;;;;5012261;28;20998;-61
2021/09/03 03:20:40;;;;;;;7.90;6.50;;;13.80;99.90;;;;;;5012370;28;20481;-61
2021/09/03 03:23:08;;;;;;;8.43;6.23;;;13.90;99.90;;;;;;5012582;28;20449;-61
2021/09/03 03:25:35;;;;;;;9.13;5.60;;;13.80;99.90;;;;;;5012602;28;20453;-61
2021/09/03 03:28:02;;;;;;;10.10;5.70;;;13.70;99.90;;;;;;5012035;28;20449;-61
2021/09/03 03:30:29;;;;;;;6.50;5.80;;;13.70;99.90;;;;;;5034394;23;20590;-54
2021/09/03 03:32:56;;;;;;;7.17;5.50;;;13.70;99.90;;;;;;5011925;28;20446;-54
2021/09/03 03:35:23;;;;;;;8.60;6.33;;;13.70;99.90;;;;;;5012284;28;20445;-54
2021/09/03 03:37:51;;;;;;;7.60;5.67;;;13.60;99.90;;;;;;5011033;28;20446;-55
2021/09/03 03:40:19;;;;;;;7.93;6.20;;;13.60;99.90;;;;;;5010019;28;20485;-55
2021/09/03 03:42:47;;;;;;;6.50;5.80;;;13.70;99.90;;;;;;5009425;28;20453;-55
2021/09/03 03:45:14;;;;;;;8.30;6.77;;;13.60;99.90;;;;;;5009539;28;20516;-56
2021/09/03 03:47:41;;;;;;;6.50;5.70;;;13.70;99.90;;;;;;5009691;28;20441;-55
2021/09/03 03:50:12;;;;;;;7.17;5.70;;;13.60;99.90;;;;;;5009359;28;20465;-55
2021/09/03 03:52:39;;;;;;;8.10;6.20;;;13.60;99.90;;;;;;5008467;28;20523;-55
2021/09/03 03:55:09;;;;;;;8.50;6.50;;;13.60;99.90;;;;;;5008417;28;20446;-54
2021/09/03 03:57:38;;;;;;;7.27;5.90;;;13.50;99.90;;;;;;5009833;28;20509;-54
2021/09/03 04:00:06;;;;;;;7.43;6.07;;;13.50;99.90;;;;;;5008395;28;20556;-54
2021/09/03 04:02:33;;;;;;;7.67;5.90;;;13.40;99.90;;;;;;5010421;28;20453;-53
2021/09/03 04:05:00;;;;;;;8.13;5.97;;;13.40;99.90;;;;;;5009957;28;20461;-56
2021/09/03 04:07:27;;;;;;;6.13;5.40;;;13.40;99.90;;;;;;5010378;28;20442;-55
2021/09/03 04:09:54;;;;;;;7.20;6.00;;;13.30;99.90;;;;;;5010292;28;20531;-56
2021/09/03 04:12:21;;;;;;;8.67;6.00;;;13.30;99.90;;;;;;5009597;28;20449;-54
2021/09/03 04:14:50;;;;;;;7.23;5.83;;;13.30;99.90;;;;;;5010422;28;20441;-56
2021/09/03 04:17:17;;;;;;;7.73;5.93;;;13.40;99.90;;;;;;5010641;28;20437;-54
2021/09/03 04:19:44;;;;;;;8.33;6.40;;;13.40;99.90;;;;;;5010248;28;20469;-55
2021/09/03 04:22:11;;;;;;;7.63;5.73;;;13.40;99.90;;;;;;5010427;28;20480;-54
2021/09/03 04:24:38;;;;;;;6.40;5.57;;;13.40;99.90;;;;;;5010370;28;20971;-56
2021/09/03 04:27:05;;;;;;;7.40;6.20;;;13.40;99.90;;;;;;5009270;28;20899;-55
2021/09/03 04:29:32;;;;;;;9.37;6.60;;;13.40;99.90;;;;;;5005876;28;21005;-54
2021/09/03 04:32:00;;;;;;;8.27;7.03;;;13.30;99.90;;;;;;5010306;28;20498;-54
2021/09/03 04:34:27;;;;;;;7.93;6.17;;;13.30;99.90;;;;;;5010597;28;21034;-55
2021/09/03 04:36:54;;;;;;;8.10;5.97;;;13.40;99.90;;;;;;5011248;28;20457;-54
2021/09/03 04:39:21;;;;;;;8.00;6.03;;;13.40;99.90;;;;;;5010843;28;20476;-55
2021/09/03 04:41:48;;;;;;;9.30;6.27;;;13.40;99.90;;;;;;5010505;28;20481;-54
2021/09/03 04:44:15;;;;;;;9.80;6.17;;;13.40;99.90;;;;;;5011362;28;20509;-55
2021/09/03 04:46:42;;;;;;;7.77;6.27;;;13.40;99.90;;;;;;5011373;28;20529;-54
2021/09/03 04:49:11;;;;;;;7.47;6.10;;;13.40;99.90;;;;;;5005649;28;20533;-55
2021/09/03 04:51:38;;;;;;;8.13;6.27;;;13.40;99.90;;;;;;5009967;28;20449;-55
2021/09/03 04:54:05;;;;;;;9.13;6.83;;;13.20;99.90;;;;;;5009922;28;20951;-54
2021/09/03 04:56:32;;;;;;;11.50;6.50;;;13.30;99.90;;;;;;5010087;28;20940;-53
2021/09/03 04:58:59;;;;;;;8.83;6.60;;;13.40;99.90;;;;;;5009904;28;21040;-54
2021/09/03 05:01:26;;;;;;;8.57;6.47;;;13.40;99.90;;;;;;5010007;28;20493;-55
2021/09/03 05:03:53;;;;;;;8.60;6.57;;;13.40;99.90;;;;;;5010030;28;20453;-55
2021/09/03 05:06:22;;;;;;;8.50;6.43;;;13.40;99.90;;;;;;5009001;28;20500;-54
2021/09/03 05:08:49;;;;;;;10.70;6.90;;;13.50;99.90;;;;;;5010089;28;20473;-54
2021/09/03 05:11:16;;;;;;;7.93;6.40;;;13.50;99.90;;;;;;5012975;28;20453;-55
2021/09/03 05:13:43;;;;;;;7.50;5.93;;;13.60;99.90;;;;;;5013615;28;21005;-55
2021/09/03 05:16:10;;;;;;;10.07;6.70;;;13.70;99.90;;;;;;5013468;28;20938;-54
2021/09/03 05:18:37;;;;;;;10.03;6.57;;;13.70;99.90;;;;;;5012840;28;20457;-53
2021/09/03 05:21:06;;;;;;;10.47;7.17;;;13.70;99.90;;;;;;5012937;28;20519;-55
2021/09/03 05:23:34;;;;;;;8.93;6.63;;;13.70;99.90;;;;;;5013672;28;20450;-53
2021/09/03 05:26:01;;;;;;;6.80;6.10;;;13.80;99.90;;;;;;5013956;28;20457;-55
2021/09/03 05:28:28;;;;;;;10.10;6.50;;;13.80;99.90;;;;;;5013832;28;20457;-54
2021/09/03 05:30:55;;;;;;;8.00;6.80;;;13.90;99.90;;;;;;5014404;28;20495;-55
2021/09/03 05:33:22;;;;;;;7.97;6.60;;;14.00;99.90;;;;;;5013582;28;20498;-55
2021/09/03 05:35:49;;;;;;;8.33;6.53;;;14.10;99.90;;;;;;5013764;28;20449;-55
2021/09/03 05:38:16;;;;;;;7.67;5.77;;;14.20;99.90;;;;;;5013894;28;20800;-55
2021/09/03 05:40:45;;;;;;;7.97;6.70;;;14.40;99.90;;;;;;5014211;28;20489;-54
2021/09/03 05:43:12;;;;;;;6.33;5.70;;;14.80;99.90;;;;;;5013841;28;20480;-57
2021/09/03 05:45:39;;;;;;;8.23;6.57;;;15.50;99.90;;;;;;5014164;28;20457;-55
2021/09/03 05:48:06;;;;;;;6.80;6.10;;;16.30;99.90;;;;;;5013926;28;20507;-55
2021/09/03 05:50:33;;;;;;;10.07;7.03;;;17.10;99.90;;;;;;5014023;28;20473;-55
2021/09/03 05:53:00;;;;;;;6.93;5.50;;;17.90;99.90;;;;;;5014055;28;20525;-56
2021/09/03 05:55:27;;;;;;;10.93;6.80;;;18.60;99.90;;;;;;5013234;28;20484;-55
2021/09/03 05:57:55;;;;;;;8.10;6.50;;;19.30;99.90;;;;;;5013725;28;20501;-57
2021/09/03 06:00:22;;;;;;;6.30;5.40;;;19.80;99.90;;;;;;5012988;28;20968;-55
2021/09/03 06:02:50;;;;;;;8.47;6.40;;;20.40;99.90;;;;;;5013032;28;20453;-55
2021/09/03 06:05:17;;;;;;;8.53;5.77;;;20.80;99.90;;;;;;5014055;28;20870;-56
2021/09/03 06:07:44;;;;;;;10.37;5.70;;;21.20;99.90;;;;;;5013780;28;20457;-57
2021/09/03 06:10:12;;;;;;;6.60;5.93;;;21.60;99.90;;;;;;5013374;28;20473;-57
2021/09/03 06:12:40;;;;;;;6.23;5.60;;;21.80;99.90;;;;;;5009952;28;21231;-55
2021/09/03 06:15:12;;;;;;;6.93;6.23;;;22.10;99.90;;;;;;5008865;28;20496;-56
2021/09/03 06:17:39;;;;;;;10.97;6.10;;;22.40;99.90;;;;;;5013418;28;20449;-57
2021/09/03 06:20:08;;;;;;;9.90;5.73;;;22.60;99.90;;;;;;5011772;28;20533;-57
2021/09/03 06:22:35;;;;;;;6.97;5.27;;;22.50;99.90;;;;;;5009514;28;20438;-56
2021/09/03 06:25:02;;;;;;;8.20;5.90;;;22.80;99.90;;;;;;5012747;28;20446;-55
2021/09/03 06:27:30;;;;;;;7.17;6.30;;;23.20;99.90;;;;;;5013195;28;20446;-56
2021/09/03 06:29:57;;;;;;;7.40;5.73;;;23.20;99.90;;;;;;5012945;28;20507;-56
2021/09/03 06:32:28;;;;;;;7.87;6.40;;;23.30;99.90;;;;;;5013003;28;20464;-55
2021/09/03 06:34:57;;;;;;;6.90;6.13;;;23.60;99.90;;;;;;5013043;28;20871;-58
2021/09/03 06:37:25;;;;;;;7.67;5.70;;;23.70;99.90;;;;;;5011590;28;20453;-56
2021/09/03 06:39:53;;;;;;;9.23;5.90;;;24.00;99.90;;;;;;5013069;28;20469;-55
2021/09/03 06:42:21;;;;;;;6.70;6.00;;;24.30;99.90;;;;;;5012734;28;20485;-57
2021/09/03 06:44:48;;;;;;;7.10;6.40;;;24.40;99.90;;;;;;5012741;28;20997;-57
2021/09/03 06:47:16;;;;;;;6.70;6.00;;;24.30;99.90;;;;;;5012868;28;20821;-58
2021/09/03 06:49:45;;;;;;;7.10;6.40;;;24.60;99.90;;;;;;5012620;28;20469;-57
2021/09/03 06:52:14;;;;;;;7.60;6.87;;;24.90;99.90;;;;;;5012340;28;20493;-56
2021/09/03 06:54:41;;;;;;;8.10;6.43;;;25.10;99.90;;;;;;5012754;28;20446;-58
2021/09/03 06:57:08;;;;;;;8.50;7.63;;;24.70;99.90;;;;;;5012650;28;20454;-56
2021/09/03 06:59:35;;;;;;;8.80;6.60;;;25.00;99.90;;;;;;5012502;28;20473;-58
2021/09/03 07:02:03;;;;;;;7.80;6.90;;;24.90;99.90;;;;;;5013025;28;20896;-57
2021/09/03 07:04:29;;;;;;;7.33;6.50;;;24.60;99.90;;;;;;5012325;28;20453;-55
2021/09/03 07:06:58;;;;;;;9.70;7.93;;;24.60;99.90;;;;;;5013054;28;20507;-55
2021/09/03 07:09:25;;;;;;;7.83;6.27;;;24.70;99.90;;;;;;5012580;28;20584;-57
2021/09/03 07:11:52;;;;;;;8.27;7.10;;;24.90;99.90;;;;;;5012051;28;20441;-57
2021/09/03 07:14:19;;;;;;;7.57;6.83;;;24.90;99.90;;;;;;5012714;28;20907;-57
2021/09/03 07:16:46;;;;;;;8.10;6.87;;;24.30;99.90;;;;;;5012671;28;20504;-56
2021/09/03 07:19:13;;;;;;;7.03;6.20;;;23.80;99.90;;;;;;5011947;28;20469;-55
2021/09/03 07:21:40;;;;;;;9.93;7.23;;;24.70;99.90;;;;;;5012443;28;20481;-56
2021/09/03 07:24:08;;;;;;;7.50;6.70;;;24.80;99.90;;;;;;5012553;28;20453;-57
2021/09/03 07:26:35;;;;;;;8.17;7.37;;;25.50;99.90;;;;;;5012543;28;21005;-57
2021/09/03 07:29:04;;;;;;;9.87;7.37;;;25.40;99.90;;;;;;5011802;28;20486;-57
2021/09/03 07:31:32;;;;;;;9.30;7.47;;;25.60;99.90;;;;;;5011574;28;20449;-57
2021/09/03 07:33:59;;;;;;;8.83;7.10;;;25.20;99.90;;;;;;5010742;28;20454;-58
2021/09/03 07:36:26;;;;;;;7.73;6.90;;;25.10;99.90;;;;;;5009593;28;20506;-56
2021/09/03 07:38:53;;;;;;;8.43;7.47;;;25.50;99.90;;;;;;5010715;28;20461;-56
2021/09/03 07:41:23;;;;;;;10.63;7.73;;;25.00;99.90;;;;;;5010789;28;20569;-54
2021/09/03 07:43:50;;;;;;;9.03;7.50;;;24.50;99.90;;;;;;5010596;28;20528;-57
2021/09/03 07:46:17;;;;;;;9.13;7.80;;;24.80;99.90;;;;;;5010074;28;20456;-55
2021/09/03 07:48:44;;;;;;;8.60;7.20;;;23.90;99.90;;;;;;5010159;28;20477;-57
2021/09/03 07:51:11;;;;;;;12.23;7.73;;;23.90;99.90;;;;;;5011086;28;20935;-56
2021/09/03 07:53:38;;;;;;;11.37;7.70;;;24.10;99.90;;;;;;5011813;28;20453;-58
2021/09/03 07:56:06;;;;;;;13.13;7.93;;;24.50;99.90;;;;;;5011728;28;20532;-57
2021/09/03 07:58:35;;;;;;;8.83;7.50;;;25.10;99.90;;;;;;5011495;28;20453;-55
2021/09/03 08:01:03;;;;;;;9.07;7.90;;;24.50;99.90;;;;;;5011331;28;20481;-55
2021/09/03 08:03:30;;;;;;;11.20;7.80;;;24.40;99.90;;;;;;5009841;28;20531;-56
2021/09/03 08:05:57;;;;;;;10.37;7.73;;;24.90;99.90;;;;;;5011391;28;20553;-56
2021/09/03 08:08:24;;;;;;;9.63;8.23;;;25.40;99.90;;;;;;5011255;28;20527;-57
2021/09/03 08:10:52;;;;;;;9.60;7.73;;;23.50;99.90;;;;;;5011065;28;20870;-56
2021/09/03 08:13:19;;;;;;;9.77;7.90;;;23.60;99.90;;;;;;5008293;28;20875;-57
2021/09/03 08:15:47;;;;;;;8.23;7.27;;;24.10;99.90;;;;;;5010655;28;20449;-56
2021/09/03 08:18:14;;;;;;;9.50;7.33;;;24.80;99.90;;;;;;5007783;28;20442;-55
2021/09/03 08:20:42;;;;;;;10.03;7.87;;;24.50;99.90;;;;;;5010322;28;20465;-56
2021/09/03 08:23:09;;;;;;;12.17;7.80;;;23.90;99.90;;;;;;5010577;28;20560;-57
2021/09/03 08:25:36;;;;;;;11.20;8.50;;;23.70;99.90;;;;;;5010480;28;20877;-56
2021/09/03 08:28:04;;;;;;;13.20;8.67;;;22.50;99.90;;;;;;5010406;28;20446;-57
2021/09/03 08:30:31;;;;;;;10.73;8.23;;;22.20;99.90;;;;;;5009675;28;20481;-57
2021/09/03 08:32:59;;;;;;;9.77;7.70;;;22.50;99.90;;;;;;5010580;28;20441;-55
2021/09/03 08:35:26;;;;;;;8.90;7.83;;;22.70;99.90;;;;;;5010593;28;20449;-55
2021/09/03 08:37:53;;;;;;;8.93;7.90;;;23.70;99.90;;;;;;5010475;28;20446;-55
2021/09/03 08:40:21;;;;;;;9.80;8.00;;;23.70;99.90;;;;;;5010744;28;20481;-57
2021/09/03 08:42:48;;;;;;;10.07;8.00;;;24.00;99.90;;;;;;5011761;28;20481;-56
2021/09/03 08:45:18;;;;;;;10.13;7.63;;;24.00;99.90;;;;;;5014819;28;20515;-58
2021/09/03 08:47:46;;;;;;;9.90;8.10;;;24.60;99.90;;;;;;5015132;28;21197;-57
2021/09/03 08:50:17;;;;;;;11.40;8.93;;;25.40;99.90;;;;;;5014663;28;20512;-58
2021/09/03 08:52:48;;;;;;;9.20;8.00;;;25.30;99.90;;;;;;5015389;28;20445;-56
2021/09/03 08:55:16;;;;;;;15.43;9.40;;;24.80;99.90;;;;;;5015047;28;20454;-58
2021/09/03 08:57:44;;;;;;;9.33;7.97;;;23.30;99.90;;;;;;5014951;28;20450;-57
2021/09/03 09:00:20;;;;;;;11.30;8.33;;;23.40;99.90;;;;;;5010006;28;20469;-56
2021/09/03 09:03:07;;;;;;;8.97;8.07;;;24.00;99.90;;;;;;5014547;28;20569;-57
2021/09/03 09:05:48;;;;;;;11.70;9.10;;;24.20;99.90;;;;;;5011861;28;20511;-56
2021/09/03 09:08:18;;;;;;;10.13;7.70;;;22.30;99.90;;;;;;5014967;28;20445;-57
2021/09/03 09:10:47;;;;;;;9.90;8.20;;;22.90;99.90;;;;;;5014336;28;20469;-59
2021/09/03 09:13:15;;;;;;;9.50;7.90;;;23.80;99.90;;;;;;5010808;28;20444;-59
2021/09/03 09:15:42;;;;;;;9.57;8.30;;;23.50;99.90;;;;;;5014748;28;20532;-58
2021/09/03 09:18:09;;;;;;;10.23;8.63;;;23.90;99.90;;;;;;5014476;28;20457;-56
2021/09/03 09:20:37;;;;;;;13.60;10.20;;;23.40;99.90;;;;;;5014324;28;20547;-57
2021/09/03 09:23:07;;;;;;;11.40;9.03;;;22.20;99.90;;;;;;5014591;28;20560;-57
2021/09/03 09:25:36;;;;;;;10.70;8.80;;;22.30;99.90;;;;;;5014338;28;20544;-56
2021/09/03 09:28:17;;;;;;;12.13;9.20;;;22.30;99.90;;;;;;5014801;28;20508;-56
2021/09/03 09:30:45;;;;;;;11.30;8.80;;;23.10;99.90;;;;;;4976805;23;1277986;-61
2021/09/03 09:33:16;;;;;;;9.70;8.40;;;22.80;99.90;;;;;;4994734;28;20199;-60
2021/09/03 09:35:46;;;;;;;13.50;9.33;;;22.60;99.90;;;;;;4994451;28;20948;-61
2021/09/03 09:38:16;;;;;;;10.60;8.50;;;23.20;99.90;;;;;;4995029;28;20442;-61
2021/09/03 09:40:51;;;;;;;11.13;8.60;;;23.40;99.90;;;;;;4994263;28;20466;-60
2021/09/03 09:43:40;;;;;;;12.43;8.40;;;24.40;99.90;;;;;;4994100;28;20497;-61
2021/09/03 09:46:16;;;;;;;11.37;9.07;;;24.80;99.90;;;;;;4991736;28;21039;-61
2021/09/03 09:49:11;;;;;;;10.03;8.00;;;25.40;99.90;;;;;;4993246;28;20897;-61
2021/09/03 09:51:51;;;;;;;11.90;10.23;;;25.60;99.90;;;;;;4985592;28;20957;-61
2021/09/03 09:54:24;;;;;;;10.37;8.87;;;25.20;99.90;;;;;;4993710;28;20442;-61
2021/09/03 09:56:53;;;;;;;9.93;8.83;;;25.10;99.90;;;;;;4993849;28;20888;-61
2021/09/03 09:59:23;;;;;;;10.50;8.23;;;24.80;99.90;;;;;;4994661;28;20474;-61
2021/09/03 10:01:52;;;;;;;11.13;8.67;;;25.40;99.90;;;;;;4993227;28;21053;-61
2021/09/03 10:04:21;;;;;;;11.90;9.67;;;25.90;99.90;;;;;;4994564;28;20446;-61
2021/09/03 10:06:51;;;;;;;10.03;8.53;;;25.00;99.90;;;;;;4993745;28;20450;-61
2021/09/03 10:09:20;;;;;;;12.30;8.90;;;24.70;99.90;;;;;;4994630;28;20544;-61
2021/09/03 10:11:50;;;;;;;12.83;9.87;;;25.00;99.90;;;;;;4993960;28;20458;-61
2021/09/03 10:14:18;;;;;;;11.43;8.80;;;24.90;99.90;;;;;;4994573;28;20454;-61
2021/09/03 10:16:46;;;;;;;12.53;9.07;;;24.20;99.90;;;;;;4993598;28;20458;-60
2021/09/03 10:19:16;;;;;;;9.73;8.30;;;24.40;99.90;;;;;;4993486;28;20471;-61
2021/09/03 10:21:43;;;;;;;9.90;8.70;;;25.10;99.90;;;;;;4993826;28;20847;-61
2021/09/03 10:24:15;;;;;;;10.40;8.53;;;24.80;99.90;;;;;;4994408;28;20497;-61
2021/09/03 10:26:44;;;;;;;9.70;8.00;;;24.70;99.90;;;;;;4993882;28;20461;-61
2021/09/03 10:29:26;;;;;;;12.47;8.37;;;25.10;99.90;;;;;;4993676;28;20541;-61
2021/09/03 10:32:25;;;;;;;10.47;7.70;;;24.80;99.90;;;;;;4993472;28;20805;-61
2021/09/03 10:35:04;;;;;;;9.90;8.10;;;24.70;99.90;;;;;;4993531;28;20480;-60
2021/09/03 10:37:38;;;;;;;8.67;7.77;;;24.80;99.90;;;;;;4993317;28;20454;-61
2021/09/03 10:40:15;;;;;;;9.43;8.13;;;25.20;99.90;;;;;;4992939;28;21078;-60
2021/09/03 10:42:48;;;;;;;10.83;8.00;;;24.30;99.90;;;;;;4993639;28;20906;-60
2021/09/03 10:45:21;;;;;;;8.70;7.40;;;23.70;99.90;;;;;;4993772;28;20455;-61
2021/09/03 10:47:50;;;;;;;9.07;7.80;;;23.90;99.90;;;;;;4993665;28;20967;-60
2021/09/03 10:50:20;;;;;;;7.60;6.70;;;24.40;99.90;;;;;;4993273;28;20478;-60
2021/09/03 10:53:19;;;;;;;9.77;8.70;;;24.40;99.90;;;;;;4993264;28;20450;-59
2021/09/03 10:56:01;;;;;;;8.30;7.40;;;23.90;99.90;;;;;;4974176;28;20451;-60
2021/09/03 10:58:33;;;;;;;10.07;8.83;;;23.70;99.90;;;;;;4974152;28;20513;-59
2021/09/03 11:01:36;;;;;;;11.20;8.47;;;23.60;99.90;;;;;;4973499;28;20468;-59
2021/09/03 11:04:05;;;;;;;9.53;7.70;;;23.20;99.90;;;;;;4973962;28;20454;-59
2021/09/03 11:06:35;;;;;;;10.63;8.00;;;23.20;99.90;;;;;;4974073;28;20443;-59
2021/09/03 11:09:05;;;;;;;14.00;8.50;;;23.40;99.90;;;;;;4992875;28;20602;-60
2021/09/03 11:11:33;;;;;;;13.70;8.50;;;23.60;99.90;;;;;;4993165;28;20442;-60
2021/09/03 11:14:02;;;;;;;11.60;8.80;;;23.60;99.90;;;;;;4993140;28;20943;-59
2021/09/03 11:16:42;;;;;;;8.80;7.40;;;23.80;99.90;;;;;;4993132;28;20867;-59
2021/09/03 11:19:12;;;;;;;7.27;6.53;;;23.90;99.90;;;;;;4993038;28;20472;-60
2021/09/03 11:21:41;;;;;;;11.80;7.70;;;24.00;99.90;;;;;;4992263;28;20991;-59
2021/09/03 11:24:10;;;;;;;9.70;7.10;;;23.70;99.90;;;;;;4993075;28;20489;-59
2021/09/03 11:26:39;;;;;;;9.73;7.60;;;23.30;99.90;;;;;;4993085;28;20501;-60
2021/09/03 11:29:17;;;;;;;7.57;6.63;;;23.20;99.90;;;;;;4992782;28;20488;-60
2021/09/03 11:31:58;;;;;;;8.73;6.43;;;23.20;99.90;;;;;;4992610;28;20577;-59
2021/09/03 11:34:58;;;;;;;7.37;6.40;;;23.20;99.90;;;;;;4992468;28;20902;-59
2021/09/03 11:37:34;;;;;;;7.27;6.40;;;23.60;99.90;;;;;;4973405;28;20961;-59
2021/09/03 11:40:15;;;;;;;7.93;6.33;;;23.80;99.90;;;;;;4973203;28;20479;-59
2021/09/03 11:42:44;;;;;;;10.83;5.87;;;23.80;99.90;;;;;;4983954;28;20532;-60
2021/09/03 11:45:16;;;;;;;6.40;5.80;;;23.90;99.90;;;;;;4992762;28;20450;-60
2021/09/03 11:47:54;;;;;;;7.43;5.87;;;24.00;99.90;;;;;;4992764;28;20454;-60
2021/09/03 11:50:27;;;;;;;7.80;6.50;;;23.50;99.90;;;;;;4992105;28;20478;-59
2021/09/03 11:52:54;;;;;;;8.33;6.60;;;23.10;99.90;;;;;;4992786;28;20585;-60
2021/09/03 11:55:22;;;;;;;7.20;5.73;;;23.20;99.90;;;;;;4992741;28;20454;-59
2021/09/03 11:57:58;;;;;;;7.00;6.00;;;23.10;99.90;;;;;;4992074;28;20450;-59
2021/09/03 12:00:28;;;;;;;6.37;5.77;;;23.00;99.90;;;;;;4990442;28;21003;-59
2021/09/03 12:02:58;;;;;;;6.93;5.80;;;23.20;99.90;;;;;;4990567;28;20478;-59
2021/09/03 12:05:25;;;;;;;6.23;5.63;;;23.10;99.90;;;;;;4992399;28;20455;-59
2021/09/03 12:08:08;;;;;;;6.60;6.00;;;23.10;99.90;;;;;;4992500;28;20447;-59
2021/09/03 12:10:37;;;;;;;7.80;6.07;;;22.80;99.90;;;;;;4992132;28;20977;-59
2021/09/03 12:13:09;;;;;;;7.00;6.00;;;22.90;99.90;;;;;;4992084;28;20493;-59
2021/09/03 12:15:36;;;;;;;7.63;6.27;;;22.60;99.90;;;;;;4992529;28;20485;-59
2021/09/03 12:18:18;;;;;;;7.13;5.80;;;22.60;99.90;;;;;;4991743;28;20458;-59
2021/09/03 12:20:49;;;;;;;7.23;5.77;;;22.60;99.90;;;;;;4992024;28;20473;-58
2021/09/03 12:23:16;;;;;;;6.37;5.67;;;22.60;99.90;;;;;;4992122;28;20481;-59
2021/09/03 12:25:43;;;;;;;6.40;5.80;;;22.90;99.90;;;;;;4992496;28;20455;-59
2021/09/03 12:28:12;;;;;;;8.40;6.37;;;22.90;99.90;;;;;;4992349;28;20450;-58
2021/09/03 12:30:40;;;;;;;7.97;6.13;;;22.90;99.90;;;;;;4991907;28;20540;-60
2021/09/03 12:33:26;;;;;;;6.87;6.13;;;22.50;99.90;;;;;;4992264;28;20447;-58
2021/09/03 12:35:55;;;;;;;6.20;5.60;;;22.40;99.90;;;;;;4992073;28;20944;-59
2021/09/03 12:38:37;;;;;;;6.20;5.60;;;22.50;99.90;;;;;;4992351;28;20450;-59
2021/09/03 12:41:10;;;;;;;8.00;5.90;;;22.40;99.90;;;;;;4991830;28;20477;-58
2021/09/03 12:43:37;;;;;;;7.77;5.70;;;22.90;99.90;;;;;;4992019;28;20533;-59
2021/09/03 12:46:08;;;;;;;6.47;5.87;;;22.60;99.90;;;;;;4992092;28;20873;-59
2021/09/03 12:48:37;;;;;;;6.70;5.80;;;22.60;99.90;;;;;;4992144;28;20454;-58
2021/09/03 12:51:04;;;;;;;7.30;6.40;;;22.70;99.90;;;;;;4992099;28;20504;-58
2021/09/03 12:53:31;;;;;;;8.53;6.20;;;22.70;99.90;;;;;;4992153;28;20537;-58